• Join FlightAware (Why Join?)
  • Login
  • US Flag 
03:47PM EST


 

Airport Tracker/Info


-or-


 

Live Flight TrackerFlight Track Log ✈ SWA417 ✈ 28-Apr-2013 ✈ KRNO - KDEN

Flight Track Log - Related Links

Times and Time Zones

All times are in EDT time to prevent confusion due to time zone crossing. See the SWA417 flight status page for this flight to view local times or setup timezone preferences in your user account.

Time Position Orientation Groundspeed Altitude Reporting Facility
EDT Latitude Longitude Course Direction KTS MPH feet Rate Location/Type
05:27PM 39.6167 -119.7333 21° North 253 291 9,100  Level Northern Cal TRACON
05:29PM 39.6639 -119.6469 55° Northeast 289 333 11,700 2,460 Climbing Oakland Center
05:30PM 39.7267 -119.5556 48° Northeast 324 373 14,400 2,580 Climbing Oakland Center
05:31PM 39.7950 -119.4531 49° Northeast 361 415 17,100 2,700 Climbing Oakland Center
05:32PM 39.5785 -118.8387 83° East  Level Estimated
05:32PM 39.8544 -119.3342 57° Northeast 390 449 20,000  Level Oakland Center
05:33PM 39.8961 -119.1961 68° East 406 467 22,400 2,160 Climbing Oakland Center
05:34PM 39.9358 -119.0478 71° East 429 494 24,500 2,220 Climbing Oakland Center
05:35PM 39.9681 -118.8572 77° East 446 513 27,000 2,040 Climbing Oakland Center
05:36PM 39.9961 -118.6939 77° East 455 524 28,800 1,620 Climbing Oakland Center
05:37PM 40.0242 -118.5247 78° East 470 541 30,400 1,740 Climbing Oakland Center
05:38PM 40.0528 -118.3572 77° East 471 542 32,400 1,740 Climbing Oakland Center
05:39PM 40.0800 -118.1917 78° East 466 536 34,000 1,500 Climbing Oakland Center
05:40PM 40.1078 -118.0239 78° East 469 540 35,500 1,380 Climbing Oakland Center
05:41PM 40.1350 -117.8564 78° East 470 541 36,900 1,260 Climbing Oakland Center
05:42PM 40.1639 -117.6828 78° East 467 537 38,100 1,020 Climbing Salt Lake Center
05:43PM 40.1883 -117.5244 79° East 465 535 39,000 360 Climbing Salt Lake Center
05:44PM 40.2186 -117.3386 78° East 467 537 38,900 -60 Descending Salt Lake Center
05:45PM 40.2436 -117.1806 78° East 467 537 38,900  Level Salt Lake Center
05:46PM 40.2719 -116.9969 79° East 465 535 38,900  Level Salt Lake Center
05:47PM 40.2953 -116.8392 79° East 471 542 38,900  Level Salt Lake Center
05:48PM 40.3244 -116.6547 78° East 472 543 38,900  Level Salt Lake Center
05:49PM 40.3481 -116.4950 79° East 470 541 38,900  Level Salt Lake Center
05:50PM 40.3592 -116.3042 86° East 472 543 38,900  Level Salt Lake Center
05:51PM 40.3675 -116.1397 86° East 472 543 38,900  Level Salt Lake Center
05:52PM 40.3781 -115.9456 86° East 477 549 38,900  Level Salt Lake Center
05:53PM 40.3875 -115.7806 86° East 475 547 38,900  Level Salt Lake Center
05:54PM 40.3975 -115.6167 85° East 473 544 38,900  Level Salt Lake Center
05:55PM 40.4069 -115.4247 86° East 472 543 38,900  Level Salt Lake Center
05:56PM 40.4156 -115.2581 86° East 476 548 38,900  Level Salt Lake Center
05:57PM 40.4239 -115.0642 87° East 478 550 38,900  Level Salt Lake Center
05:58PM 40.4314 -114.9003 87° East 473 544 38,900  Level Salt Lake Center
05:59PM 40.4389 -114.7161 87° East 475 547 39,000  Climbing Salt Lake Center
06:00PM 40.4469 -114.5425 86° East 476 548 39,000  Level Salt Lake Center
06:01PM 40.4536 -114.3681 87° East 479 551 39,000  Level Salt Lake Center
06:02PM 40.4611 -114.1956 87° East 478 550 39,000 -60 Level Salt Lake Center
06:03PM 40.4697 -114.0225 86° East 477 549 38,900 -60 Descending Salt Lake Center
06:04PM 40.4772 -113.8144 87° East 478 550 38,900  Level Salt Lake Center
06:06PM 40.4811 -113.6425 88° East 475 547 38,900  Level Salt Lake Center
06:07PM 40.4878 -113.4708 87° East 473 544 38,900  Level Salt Lake Center
06:08PM 40.4933 -113.2986 88° East 474 545 38,900  Level Salt Lake Center
06:09PM 40.4997 -113.1256 87° East 475 547 39,000  Climbing Salt Lake Center
06:10PM 40.5014 -112.9497 89° East 481 554 39,000  Level Salt Lake Center
06:11PM 40.5061 -112.7750 88° East 481 554 39,000 -60 Level Salt Lake Center
06:12PM 40.5106 -112.6006 88° East 480 552 38,900 -60 Descending Salt Lake Center
06:13PM 40.5161 -112.3911 88° East 481 554 38,900  Level Salt Lake Center
06:14PM 40.5203 -112.2172 88° East 480 552 38,900  Level Salt Lake Center
06:15PM 40.5233 -112.0433 89° East 480 552 39,000  Climbing Salt Lake Center
06:16PM 40.5264 -111.8700 89° East 480 552 38,900 -60 Descending Salt Lake Center
06:17PM 40.5294 -111.6978 89° East 477 549 38,900  Level Salt Lake Center
06:18PM 40.5331 -111.5261 88° East 475 547 39,000  Climbing Salt Lake Center
06:19PM 40.5361 -111.3211 89° East 470 541 38,900  Descending Salt Lake Center
06:20PM 40.5375 -111.1497 89° East 471 542 39,000  Climbing Salt Lake Center
06:21PM 40.5403 -110.9775 89° East 474 545 39,000 -60 Level Salt Lake Center
06:22PM 40.5419 -110.8058 89° East 472 543 38,900 -60 Descending Salt Lake Center
06:23PM 40.5419 -110.6342 90° East 472 543 38,900  Level Salt Lake Center
06:24PM 40.5431 -110.4381 90° East 476 548 38,900  Level Salt Lake Center
06:25PM 40.5442 -110.2731 89° East 473 544 39,000  Climbing Salt Lake Center
06:26PM 40.5444 -110.1069 90° East 476 548 39,000  Level Salt Lake Center
06:27PM 40.5447 -109.9106 90° East 478 550 39,000 -60 Level Salt Lake Center
06:28PM 40.5453 -109.7428 90° East 480 552 38,900 -60 Descending Salt Lake Center
06:29PM 40.5444 -109.5481 90° East 478 550 38,900  Level Salt Lake Center
06:30PM 40.5444 -109.3786 90° East 481 554 39,000  Climbing Salt Lake Center
06:31PM 40.5436 -109.2081 90° East 484 557 39,000  Level Salt Lake Center
06:32PM 40.5372 -109.0119 92° East 481 554 39,000  Level Salt Lake Center
06:33PM 40.5306 -108.8439 93° East 481 554 39,000  Level Salt Lake Center
06:34PM 40.5250 -108.6544 92° East 480 552 39,000 -60 Level Salt Lake Center
06:35PM 40.5172 -108.4914 94° East 475 547 38,900 -60 Descending Salt Lake Center
06:36PM 40.5097 -108.2989 93° East 474 545 38,900  Level Salt Lake Center
06:37PM 40.5036 -108.1328 93° East 476 548 39,000  Climbing Salt Lake Center
06:38PM 40.4961 -107.9683 93° East 475 547 39,000  Level Salt Lake Center
06:40PM 40.4856 -107.7336 93° East 476 548 39,000 -60 Level Denver Center
06:41PM 40.4781 -107.5664 93° East 478 550 38,900 -60 Descending Denver Center
06:42PM 40.4681 -107.3703 94° East 481 554 38,900  Level Denver Center
06:43PM 40.4592 -107.2047 94° East 476 548 38,900  Level Denver Center
06:44PM 40.4514 -107.0394 93° East 475 547 38,900  Level Denver Center
06:45PM 40.4414 -106.8542 94° East 476 548 38,900 -540 Level Denver Center
06:46PM 40.4322 -106.6822 94° East 473 544 37,800 -1,920 Descending Denver Center
06:47PM 40.4217 -106.4928 94° East 467 537 35,000 -2,700 Descending Denver Center
06:48PM 40.4139 -106.3308 94° East 465 535 32,300 -2,580 Descending Denver Center
06:49PM 40.4006 -106.1400 95° East 469 540 29,700 -2,280 Descending Denver Center
06:50PM 40.3917 -105.9917 94° East 458 527 27,700 -2,040 Descending Denver Center
06:51PM 40.3825 -105.8308 94° East 442 509 25,600 -2,040 Descending Denver Center
06:52PM 40.3714 -105.6725 95° East 432 497 23,500 -2,040 Descending Denver Center
06:53PM 40.3597 -105.4914 95° East 426 490 21,500 -1,500 Descending Denver Center
06:54PM 40.3261 -105.3864 113° Southeast 393 452 20,500 -1,500 Descending Denver Center
06:55PM 40.2447 -105.2611 130° Southeast 366 421 18,500 -1,740 Descending Denver Center
06:56PM 40.1806 -105.1597 130° Southeast 361 415 17,000 -780 Descending Denver Center
06:57PM 40.1189 -105.0644 130° Southeast 344 396 17,000 -840 Level Denver Center
06:58PM 40.0536 -104.9628 130° Southeast 341 392 15,400 -1,560 Descending Denver Center
06:59PM 39.9939 -104.8700 130° Southeast 336 387 13,900 -1,500 Descending Denver Center
07:00PM 39.9236 -104.8053 145° Southeast 314 361 12,300 -1,320 Descending Denver Center
07:01PM 39.8347 -104.8078 181° South 298 343 11,300 -660 Descending Denver Center
07:02PM 39.7594 -104.8097 181° South 270 311 11,000 -540 Descending Denver Center
07:03PM 39.6831 -104.8119 181° South 259 298 10,300 -600 Descending Denver Center
07:04PM 39.6594 -104.7458 115° Southeast 250 288 9,800 -780 Descending Denver Center
07:05PM 39.7078 -104.6900 42° Northeast 215 247 8,800 -1,260 Descending Denver Center
07:06PM 39.7528 -104.6611 26° Northeast 185 213 7,300 -1,320 Descending Denver Center
07:07PM 39.7956 -104.6614 360° North 156 180 6,100 -960 Descending Denver Center
07:08PM 39.8389 -104.6608 North 152 175 5,400 -720 Descending Denver Center
07:10PM 39.8500 -104.6667 North  Level FlightAware Approximate
07:17PM 39.8617 -104.6732 North  Level Estimated
07:18PM 39.8617 -104.6732 North  Level Estimated
07:19PM 39.8617 -104.6732 North  Level Estimated